68houraimaru — JJ3837 — position and weather

sailwx.info

Track history (hours):
 
Tides and Currents Weather Stations Pressure Air Temp Water Temp Dewpoint Dewpoint Depression Visibility Wind Speed Wind Dir Waves Ship Positions

68houraimaru

Last reported at 2018-Jan-23 05:58 UTC. Time now 2018-Jan-23 06:05 UTC.
Position N 35°05' E 136°52'.

Length 65 m.

Type: Cargo ship. MMSI: 431300447.

Date/timePositionNaut miles runAvg speedWind from/ knotsBaromVisibWave heightAir tempDewpointWater temp
2018-Jan-23 05:58N 35°05' E 136°52'1 1.5
2018-Jan-23 05:23N 35°04' E 136°53'0 0.0
2018-Jan-23 04:56N 35°04' E 136°53'0 0.0
2018-Jan-23 04:26N 35°04' E 136°53'0 0.0
2018-Jan-23 03:56N 35°04' E 136°53'0 0.0
2018-Jan-23 03:26N 35°04' E 136°53'0 0.0
2018-Jan-23 02:59N 35°04' E 136°53'0 0.0
2018-Jan-23 02:26N 35°04' E 136°53'0 0.1
2018-Jan-23 01:52N 35°04' E 136°53'3 7.2
2018-Jan-23 01:30N 35°02' E 136°51'611.2
2018-Jan-23 00:59N 34°57' E 136°47'510.6
2018-Jan-23 00:30N 34°52' E 136°47'610.5
2018-Jan-22 23:58N 34°47' E 136°49'140 9.6
2018-Jan-22 09:25N 35°04' E 139°38'512.0
2018-Jan-22 09:00N 35°07' E 139°42'612.0
2018-Jan-22 08:30N 35°13' E 139°46'510.6
2018-Jan-22 08:00N 35°18' E 139°44'610.8
2018-Jan-22 07:28N 35°23' E 139°42'511.2
2018-Jan-22 06:59N 35°27' E 139°46'5 0.4
2018-Jan-21 18:58N 35°29' E 139°52'512.0
2018-Jan-21 18:30N 35°25' E 139°47'611.9
2018-Jan-21 17:59N 35°20' E 139°44'611.6
2018-Jan-21 17:29N 35°14' E 139°47'611.6
2018-Jan-21 17:00N 35°09' E 139°46'611.2
2018-Jan-21 16:28N 35°04' E 139°42'511.1
2018-Jan-21 16:00N 34°60' E 139°38'14111.4
2018-Jan-21 03:35N 34°46' E 136°47'113.2
2018-Jan-21 03:30N 34°47' E 136°46'612.9
2018-Jan-21 03:00N 34°53' E 136°46'612.3
2018-Jan-21 02:29N 34°59' E 136°49'612.3
2018-Jan-21 01:59N 35°04' E 136°52'1 0.3
2018-Jan-20 23:38N 35°04' E 136°53'0 0.0
2018-Jan-20 23:09N 35°04' E 136°53'0 2.2
2018-Jan-20 22:59N 35°05' E 136°53'510.1
2018-Jan-20 22:30N 35°00' E 136°50'610.8
2018-Jan-20 21:58N 34°55' E 136°47'510.8
2018-Jan-20 21:30N 34°50' E 136°47'140 9.5
2018-Jan-20 06:41N 35°04' E 139°38'211.2
2018-Jan-20 06:28N 35°06' E 139°40'611.4
2018-Jan-20 05:57N 35°11' E 139°45'510.8
2018-Jan-20 05:30N 35°15' E 139°46'611.0
2018-Jan-20 04:59N 35°20' E 139°42'610.7
2018-Jan-20 04:27N 35°26' E 139°44'8 0.3
2018-Jan-19 00:42N 35°29' E 139°52'311.9
2018-Jan-19 00:25N 35°27' E 139°49'511.6
2018-Jan-19 00:00N 35°23' E 139°46'510.8
2018-Jan-18 23:30N 35°18' E 139°45'611.3
2018-Jan-18 23:00N 35°12' E 139°47'611.6
2018-Jan-18 22:28N 35°06' E 139°44'611.5
2018-Jan-18 21:56N 35°01' E 139°40'14211.3
2018-Jan-18 09:20N 34°44' E 136°47'512.8
2018-Jan-18 08:57N 34°49' E 136°45'613.0
2018-Jan-18 08:30N 34°55' E 136°46'612.6
2018-Jan-18 08:00N 35°00' E 136°50'2 2.9
2018-Jan-18 07:18N 35°02' E 136°50'0 0.0
2018-Jan-18 07:00N 35°02' E 136°50'2 3.7
2018-Jan-18 06:30N 35°04' E 136°52'1 2.4
2018-Jan-18 06:00N 35°04' E 136°53'0 0.0
2018-Jan-18 05:24N 35°04' E 136°53'0 0.0
2018-Jan-18 04:54N 35°04' E 136°53'0 0.1
2018-Jan-18 04:30N 35°04' E 136°53'5 9.3
2018-Jan-18 04:00N 35°00' E 136°50'611.3
2018-Jan-18 03:29N 34°55' E 136°47'511.2
2018-Jan-18 03:00N 34°50' E 136°47'611.1
2018-Jan-18 02:28N 34°44' E 136°50'10 6.0
2018-Jan-18 00:47N 34°52' E 136°58'3 2.0
2018-Jan-17 23:28N 34°55' E 136°58'  
Track history (hours):
 
Tides and Currents Weather Stations Pressure Air Temp Water Temp Dewpoint Dewpoint Depression Visibility Wind Speed Wind Dir Waves Ship Positions

68houraimaru

Last reported at 2018-Jan-23 05:58 UTC. Time now 2018-Jan-23 06:05 UTC.
Position N 35°05' E 136°52'.

Length 65 m.

Type: Cargo ship. MMSI: 431300447.

Date/timePositionNaut miles runAvg speedWind from/ knotsBaromVisibWave heightAir tempDewpointWater temp
2018-Jan-23 05:58N 35°05' E 136°52'1 1.5
2018-Jan-23 05:23N 35°04' E 136°53'0 0.0
2018-Jan-23 04:56N 35°04' E 136°53'0 0.0
2018-Jan-23 04:26N 35°04' E 136°53'0 0.0
2018-Jan-23 03:56N 35°04' E 136°53'0 0.0
2018-Jan-23 03:26N 35°04' E 136°53'0 0.0
2018-Jan-23 02:59N 35°04' E 136°53'0 0.0
2018-Jan-23 02:26N 35°04' E 136°53'0 0.1
2018-Jan-23 01:52N 35°04' E 136°53'3 7.2
2018-Jan-23 01:30N 35°02' E 136°51'611.2
2018-Jan-23 00:59N 34°57' E 136°47'510.6
2018-Jan-23 00:30N 34°52' E 136°47'610.5
2018-Jan-22 23:58N 34°47' E 136°49'140 9.6
2018-Jan-22 09:25N 35°04' E 139°38'512.0
2018-Jan-22 09:00N 35°07' E 139°42'612.0
2018-Jan-22 08:30N 35°13' E 139°46'510.6
2018-Jan-22 08:00N 35°18' E 139°44'610.8
2018-Jan-22 07:28N 35°23' E 139°42'511.2
2018-Jan-22 06:59N 35°27' E 139°46'5 0.4
2018-Jan-21 18:58N 35°29' E 139°52'512.0
2018-Jan-21 18:30N 35°25' E 139°47'611.9
2018-Jan-21 17:59N 35°20' E 139°44'611.6
2018-Jan-21 17:29N 35°14' E 139°47'611.6
2018-Jan-21 17:00N 35°09' E 139°46'611.2
2018-Jan-21 16:28N 35°04' E 139°42'511.1
2018-Jan-21 16:00N 34°60' E 139°38'14111.4
2018-Jan-21 03:35N 34°46' E 136°47'113.2
2018-Jan-21 03:30N 34°47' E 136°46'612.9
2018-Jan-21 03:00N 34°53' E 136°46'612.3
2018-Jan-21 02:29N 34°59' E 136°49'612.3
2018-Jan-21 01:59N 35°04' E 136°52'1 0.3
2018-Jan-20 23:38N 35°04' E 136°53'0 0.0
2018-Jan-20 23:09N 35°04' E 136°53'0 2.2
2018-Jan-20 22:59N 35°05' E 136°53'510.1
2018-Jan-20 22:30N 35°00' E 136°50'610.8
2018-Jan-20 21:58N 34°55' E 136°47'510.8
2018-Jan-20 21:30N 34°50' E 136°47'140 9.5
2018-Jan-20 06:41N 35°04' E 139°38'211.2
2018-Jan-20 06:28N 35°06' E 139°40'611.4
2018-Jan-20 05:57N 35°11' E 139°45'510.8
2018-Jan-20 05:30N 35°15' E 139°46'611.0
2018-Jan-20 04:59N 35°20' E 139°42'610.7
2018-Jan-20 04:27N 35°26' E 139°44'8 0.3
2018-Jan-19 00:42N 35°29' E 139°52'311.9
2018-Jan-19 00:25N 35°27' E 139°49'511.6
2018-Jan-19 00:00N 35°23' E 139°46'510.8
2018-Jan-18 23:30N 35°18' E 139°45'611.3
2018-Jan-18 23:00N 35°12' E 139°47'611.6
2018-Jan-18 22:28N 35°06' E 139°44'611.5
2018-Jan-18 21:56N 35°01' E 139°40'14211.3
2018-Jan-18 09:20N 34°44' E 136°47'512.8
2018-Jan-18 08:57N 34°49' E 136°45'613.0
2018-Jan-18 08:30N 34°55' E 136°46'612.6
2018-Jan-18 08:00N 35°00' E 136°50'2 2.9
2018-Jan-18 07:18N 35°02' E 136°50'0 0.0
2018-Jan-18 07:00N 35°02' E 136°50'2 3.7
2018-Jan-18 06:30N 35°04' E 136°52'1 2.4
2018-Jan-18 06:00N 35°04' E 136°53'0 0.0
2018-Jan-18 05:24N 35°04' E 136°53'0 0.0
2018-Jan-18 04:54N 35°04' E 136°53'0 0.1
2018-Jan-18 04:30N 35°04' E 136°53'5 9.3
2018-Jan-18 04:00N 35°00' E 136°50'611.3
2018-Jan-18 03:29N 34°55' E 136°47'511.2
2018-Jan-18 03:00N 34°50' E 136°47'611.1
2018-Jan-18 02:28N 34°44' E 136°50'10 6.0
2018-Jan-18 00:47N 34°52' E 136°58'3 2.0
2018-Jan-17 23:28N 34°55' E 136°58'  

Dump ship's entire track history